sensor_id;sensor_type;location;lat;lon;timestamp;P1;durP1;ratioP1;P2;durP2;ratioP2
62475;SDS011;50739;45.670;11.936;2023-03-11T00:01:44;13.25;;;8.50;;
62475;SDS011;50739;45.670;11.936;2023-03-11T00:06:46;12.57;;;8.13;;
62475;SDS011;50739;45.670;11.936;2023-03-11T00:11:48;14.35;;;9.13;;
62475;SDS011;50739;45.670;11.936;2023-03-11T00:16:51;15.57;;;9.10;;
62475;SDS011;50739;45.670;11.936;2023-03-11T00:21:53;14.98;;;9.45;;
62475;SDS011;50739;45.670;11.936;2023-03-11T00:26:55;14.98;;;9.43;;
62475;SDS011;50739;45.670;11.936;2023-03-11T00:31:59;13.27;;;9.30;;
62475;SDS011;50739;45.670;11.936;2023-03-11T00:37:01;12.48;;;9.43;;
62475;SDS011;50739;45.670;11.936;2023-03-11T00:42:03;17.83;;;10.15;;
62475;SDS011;50739;45.670;11.936;2023-03-11T00:47:07;19.98;;;9.27;;
62475;SDS011;50739;45.670;11.936;2023-03-11T00:52:09;13.73;;;9.20;;
62475;SDS011;50739;45.670;11.936;2023-03-11T00:57:11;16.42;;;9.93;;
62475;SDS011;50739;45.670;11.936;2023-03-11T01:02:14;14.15;;;9.35;;
62475;SDS011;50739;45.670;11.936;2023-03-11T01:07:16;19.20;;;11.43;;
62475;SDS011;50739;45.670;11.936;2023-03-11T01:12:18;18.23;;;11.93;;
62475;SDS011;50739;45.670;11.936;2023-03-11T01:17:22;21.35;;;14.30;;
62475;SDS011;50739;45.670;11.936;2023-03-11T01:22:24;21.85;;;14.52;;
62475;SDS011;50739;45.670;11.936;2023-03-11T01:27:26;24.55;;;14.25;;
62475;SDS011;50739;45.670;11.936;2023-03-11T01:32:30;22.10;;;14.23;;
62475;SDS011;50739;45.670;11.936;2023-03-11T01:37:31;21.83;;;14.03;;
62475;SDS011;50739;45.670;11.936;2023-03-11T01:42:33;24.80;;;14.35;;
62475;SDS011;50739;45.670;11.936;2023-03-11T01:47:40;24.75;;;14.52;;
62475;SDS011;50739;45.670;11.936;2023-03-11T01:52:42;25.75;;;14.63;;
62475;SDS011;50739;45.670;11.936;2023-03-11T01:57:44;21.00;;;14.83;;
62475;SDS011;50739;45.670;11.936;2023-03-11T02:02:50;22.10;;;14.43;;
62475;SDS011;50739;45.670;11.936;2023-03-11T02:07:53;24.80;;;15.50;;
62475;SDS011;50739;45.670;11.936;2023-03-11T02:12:56;23.77;;;15.10;;
62475;SDS011;50739;45.670;11.936;2023-03-11T02:17:59;22.75;;;14.25;;
62475;SDS011;50739;45.670;11.936;2023-03-11T02:23:04;22.48;;;14.93;;
62475;SDS011;50739;45.670;11.936;2023-03-11T02:28:08;23.27;;;16.27;;
62475;SDS011;50739;45.670;11.936;2023-03-11T02:33:13;26.60;;;16.73;;
62475;SDS011;50739;45.670;11.936;2023-03-11T02:38:15;25.20;;;16.55;;
62475;SDS011;50739;45.670;11.936;2023-03-11T02:43:20;28.93;;;17.33;;
62475;SDS011;50739;45.670;11.936;2023-03-11T02:48:25;27.17;;;17.55;;
62475;SDS011;50739;45.670;11.936;2023-03-11T02:53:29;25.92;;;17.05;;
62475;SDS011;50739;45.670;11.936;2023-03-11T02:58:35;26.67;;;18.25;;
62475;SDS011;50739;45.670;11.936;2023-03-11T03:03:36;24.90;;;17.58;;
62475;SDS011;50739;45.670;11.936;2023-03-11T03:08:38;27.03;;;17.73;;
62475;SDS011;50739;45.670;11.936;2023-03-11T03:13:42;27.27;;;18.48;;
62475;SDS011;50739;45.670;11.936;2023-03-11T03:18:44;29.23;;;18.07;;
62475;SDS011;50739;45.670;11.936;2023-03-11T03:23:45;26.23;;;18.23;;
62475;SDS011;50739;45.670;11.936;2023-03-11T03:28:49;27.13;;;18.13;;
62475;SDS011;50739;45.670;11.936;2023-03-11T03:33:50;26.73;;;18.83;;
62475;SDS011;50739;45.670;11.936;2023-03-11T03:38:53;26.97;;;19.83;;
62475;SDS011;50739;45.670;11.936;2023-03-11T03:43:57;28.25;;;18.88;;
62475;SDS011;50739;45.670;11.936;2023-03-11T03:48:58;28.38;;;18.83;;
62475;SDS011;50739;45.670;11.936;2023-03-11T03:54:00;28.40;;;19.80;;
62475;SDS011;50739;45.670;11.936;2023-03-11T03:59:03;30.10;;;19.87;;
62475;SDS011;50739;45.670;11.936;2023-03-11T04:04:05;28.02;;;18.85;;
62475;SDS011;50739;45.670;11.936;2023-03-11T04:09:07;29.85;;;19.55;;
62475;SDS011;50739;45.670;11.936;2023-03-11T04:14:12;31.20;;;18.93;;
62475;SDS011;50739;45.670;11.936;2023-03-11T04:19:14;32.67;;;19.92;;
62475;SDS011;50739;45.670;11.936;2023-03-11T04:24:16;30.87;;;19.20;;
62475;SDS011;50739;45.670;11.936;2023-03-11T04:29:19;30.08;;;19.42;;
62475;SDS011;50739;45.670;11.936;2023-03-11T04:34:21;25.33;;;18.52;;
62475;SDS011;50739;45.670;11.936;2023-03-11T04:39:23;34.70;;;18.52;;
62475;SDS011;50739;45.670;11.936;2023-03-11T04:44:26;28.50;;;18.13;;
62475;SDS011;50739;45.670;11.936;2023-03-11T04:49:28;27.97;;;17.07;;
62475;SDS011;50739;45.670;11.936;2023-03-11T04:54:30;28.23;;;17.60;;
62475;SDS011;50739;45.670;11.936;2023-03-11T04:59:33;25.33;;;17.65;;
62475;SDS011;50739;45.670;11.936;2023-03-11T05:04:35;28.05;;;17.73;;
62475;SDS011;50739;45.670;11.936;2023-03-11T05:09:37;28.42;;;17.90;;
62475;SDS011;50739;45.670;11.936;2023-03-11T05:14:40;24.03;;;16.67;;
62475;SDS011;50739;45.670;11.936;2023-03-11T05:19:42;24.70;;;16.00;;
62475;SDS011;50739;45.670;11.936;2023-03-11T05:24:44;24.83;;;15.38;;
62475;SDS011;50739;45.670;11.936;2023-03-11T05:29:48;22.25;;;15.48;;
62475;SDS011;50739;45.670;11.936;2023-03-11T05:34:49;26.50;;;16.33;;
62475;SDS011;50739;45.670;11.936;2023-03-11T05:39:52;24.47;;;15.77;;
62475;SDS011;50739;45.670;11.936;2023-03-11T05:44:55;22.80;;;15.60;;
62475;SDS011;50739;45.670;11.936;2023-03-11T05:49:57;25.00;;;15.67;;
62475;SDS011;50739;45.670;11.936;2023-03-11T05:54:59;23.10;;;15.80;;
62475;SDS011;50739;45.670;11.936;2023-03-11T06:00:03;22.83;;;15.13;;
62475;SDS011;50739;45.670;11.936;2023-03-11T06:05:10;22.00;;;14.85;;
62475;SDS011;50739;45.670;11.936;2023-03-11T06:10:12;23.10;;;15.00;;
62475;SDS011;50739;45.670;11.936;2023-03-11T06:15:16;21.52;;;14.15;;
62475;SDS011;50739;45.670;11.936;2023-03-11T06:20:18;19.02;;;13.32;;
62475;SDS011;50739;45.670;11.936;2023-03-11T06:25:20;20.80;;;13.45;;
62475;SDS011;50739;45.670;11.936;2023-03-11T06:30:24;20.95;;;13.18;;
62475;SDS011;50739;45.670;11.936;2023-03-11T06:35:25;18.05;;;13.20;;
62475;SDS011;50739;45.670;11.936;2023-03-11T06:40:28;18.23;;;12.57;;
62475;SDS011;50739;45.670;11.936;2023-03-11T06:45:31;20.27;;;11.73;;
62475;SDS011;50739;45.670;11.936;2023-03-11T06:50:33;21.90;;;12.35;;
62475;SDS011;50739;45.670;11.936;2023-03-11T06:55:35;17.98;;;12.13;;
62475;SDS011;50739;45.670;11.936;2023-03-11T07:00:38;20.77;;;13.20;;
62475;SDS011;50739;45.670;11.936;2023-03-11T07:05:40;20.83;;;12.73;;
62475;SDS011;50739;45.670;11.936;2023-03-11T07:10:42;19.60;;;12.27;;
62475;SDS011;50739;45.670;11.936;2023-03-11T07:15:45;21.40;;;12.20;;
62475;SDS011;50739;45.670;11.936;2023-03-11T07:20:47;21.60;;;13.33;;
62475;SDS011;50739;45.670;11.936;2023-03-11T07:25:49;17.58;;;12.30;;
62475;SDS011;50739;45.670;11.936;2023-03-11T07:30:53;19.70;;;12.95;;
62475;SDS011;50739;45.670;11.936;2023-03-11T07:35:55;20.23;;;12.93;;
62475;SDS011;50739;45.670;11.936;2023-03-11T07:58:46;18.77;;;12.80;;
62475;SDS011;50739;45.670;11.936;2023-03-11T08:03:49;21.80;;;12.60;;
62475;SDS011;50739;45.670;11.936;2023-03-11T08:08:56;17.92;;;12.20;;
62475;SDS011;50739;45.670;11.936;2023-03-11T08:14:00;19.80;;;12.50;;
62475;SDS011;50739;45.670;11.936;2023-03-11T08:19:02;24.20;;;10.80;;
62475;SDS011;50739;45.670;11.936;2023-03-11T08:24:04;18.02;;;9.32;;
62475;SDS011;50739;45.670;11.936;2023-03-11T08:29:08;14.90;;;8.27;;
62475;SDS011;50739;45.670;11.936;2023-03-11T08:34:10;13.05;;;7.32;;
62475;SDS011;50739;45.670;11.936;2023-03-11T08:39:13;16.88;;;8.52;;
62475;SDS011;50739;45.670;11.936;2023-03-11T08:44:16;17.07;;;9.40;;
62475;SDS011;50739;45.670;11.936;2023-03-11T08:49:18;18.83;;;8.97;;
62475;SDS011;50739;45.670;11.936;2023-03-11T08:54:20;16.65;;;7.03;;
62475;SDS011;50739;45.670;11.936;2023-03-11T08:59:23;17.23;;;7.60;;
62475;SDS011;50739;45.670;11.936;2023-03-11T09:04:25;12.47;;;6.60;;
62475;SDS011;50739;45.670;11.936;2023-03-11T09:09:27;13.20;;;6.88;;
62475;SDS011;50739;45.670;11.936;2023-03-11T09:14:30;15.55;;;7.35;;
62475;SDS011;50739;45.670;11.936;2023-03-11T09:19:32;14.55;;;6.68;;
62475;SDS011;50739;45.670;11.936;2023-03-11T09:24:35;17.77;;;6.88;;
62475;SDS011;50739;45.670;11.936;2023-03-11T09:29:38;16.98;;;7.25;;
62475;SDS011;50739;45.670;11.936;2023-03-11T09:34:40;16.37;;;7.47;;
62475;SDS011;50739;45.670;11.936;2023-03-11T09:39:42;16.03;;;8.10;;
62475;SDS011;50739;45.670;11.936;2023-03-11T09:44:47;19.25;;;10.57;;
62475;SDS011;50739;45.670;11.936;2023-03-11T09:49:59;26.25;;;12.63;;
62475;SDS011;50739;45.670;11.936;2023-03-11T09:55:12;26.05;;;12.18;;
62475;SDS011;50739;45.670;11.936;2023-03-11T10:00:28;17.23;;;9.48;;
62475;SDS011;50739;45.670;11.936;2023-03-11T10:05:30;16.30;;;8.70;;
62475;SDS011;50739;45.670;11.936;2023-03-11T10:10:34;18.10;;;8.93;;
62475;SDS011;50739;45.670;11.936;2023-03-11T10:15:45;16.40;;;9.88;;
62475;SDS011;50739;45.670;11.936;2023-03-11T10:20:51;16.63;;;8.67;;
62475;SDS011;50739;45.670;11.936;2023-03-11T10:25:59;17.58;;;10.00;;
62475;SDS011;50739;45.670;11.936;2023-03-11T10:31:12;19.08;;;9.10;;
62475;SDS011;50739;45.670;11.936;2023-03-11T10:36:22;17.92;;;8.98;;
62475;SDS011;50739;45.670;11.936;2023-03-11T10:41:27;17.10;;;9.00;;
62475;SDS011;50739;45.670;11.936;2023-03-11T10:46:33;17.80;;;8.63;;
62475;SDS011;50739;45.670;11.936;2023-03-11T10:51:35;18.37;;;8.67;;
62475;SDS011;50739;45.670;11.936;2023-03-11T10:56:40;22.45;;;9.90;;
62475;SDS011;50739;45.670;11.936;2023-03-11T11:02:00;17.98;;;9.80;;
62475;SDS011;50739;45.670;11.936;2023-03-11T11:07:23;18.60;;;10.82;;
62475;SDS011;50739;45.670;11.936;2023-03-11T11:12:30;20.17;;;11.63;;
62475;SDS011;50739;45.670;11.936;2023-03-11T11:17:33;22.27;;;12.77;;
62475;SDS011;50739;45.670;11.936;2023-03-11T11:22:35;25.30;;;14.63;;
62475;SDS011;50739;45.670;11.936;2023-03-11T11:27:37;27.13;;;15.73;;
62475;SDS011;50739;45.670;11.936;2023-03-11T11:32:44;28.63;;;15.43;;
62475;SDS011;50739;45.670;11.936;2023-03-11T11:37:46;30.45;;;16.17;;
62475;SDS011;50739;45.670;11.936;2023-03-11T11:42:51;26.93;;;16.00;;
62475;SDS011;50739;45.670;11.936;2023-03-11T11:47:58;24.50;;;14.95;;
62475;SDS011;50739;45.670;11.936;2023-03-11T11:53:07;26.37;;;15.53;;
62475;SDS011;50739;45.670;11.936;2023-03-11T11:58:18;27.58;;;16.02;;
62475;SDS011;50739;45.670;11.936;2023-03-11T12:08:52;46.28;;;24.45;;
62475;SDS011;50739;45.670;11.936;2023-03-11T12:14:05;25.60;;;15.00;;
62475;SDS011;50739;45.670;11.936;2023-03-11T12:19:19;51.00;;;30.08;;
62475;SDS011;50739;45.670;11.936;2023-03-11T12:24:41;39.83;;;19.05;;
62475;SDS011;50739;45.670;11.936;2023-03-11T12:29:59;28.23;;;16.17;;
62475;SDS011;50739;45.670;11.936;2023-03-11T12:35:28;27.60;;;16.80;;
62475;SDS011;50739;45.670;11.936;2023-03-11T12:41:25;26.55;;;16.80;;
62475;SDS011;50739;45.670;11.936;2023-03-11T13:03:04;31.63;;;18.40;;
62475;SDS011;50739;45.670;11.936;2023-03-11T13:08:30;31.40;;;17.58;;
62475;SDS011;50739;45.670;11.936;2023-03-11T13:13:53;31.45;;;18.27;;
62475;SDS011;50739;45.670;11.936;2023-03-11T13:19:51;29.55;;;17.65;;
62475;SDS011;50739;45.670;11.936;2023-03-11T13:24:58;29.05;;;17.48;;
62475;SDS011;50739;45.670;11.936;2023-03-11T13:30:32;31.13;;;17.92;;
62475;SDS011;50739;45.670;11.936;2023-03-11T13:35:53;28.55;;;17.20;;
62475;SDS011;50739;45.670;11.936;2023-03-11T13:41:13;30.65;;;17.75;;
62475;SDS011;50739;45.670;11.936;2023-03-11T13:46:21;26.23;;;16.95;;
62475;SDS011;50739;45.670;11.936;2023-03-11T13:51:30;29.77;;;18.10;;
62475;SDS011;50739;45.670;11.936;2023-03-11T13:56:38;28.52;;;16.90;;
62475;SDS011;50739;45.670;11.936;2023-03-11T14:01:49;27.90;;;16.92;;
62475;SDS011;50739;45.670;11.936;2023-03-11T14:06:52;29.92;;;16.85;;
62475;SDS011;50739;45.670;11.936;2023-03-11T14:11:57;27.57;;;16.50;;
62475;SDS011;50739;45.670;11.936;2023-03-11T14:17:04;24.55;;;15.90;;
62475;SDS011;50739;45.670;11.936;2023-03-11T14:22:10;23.83;;;15.05;;
62475;SDS011;50739;45.670;11.936;2023-03-11T14:27:16;20.73;;;14.20;;
62475;SDS011;50739;45.670;11.936;2023-03-11T14:32:24;20.23;;;14.27;;
62475;SDS011;50739;45.670;11.936;2023-03-11T14:37:29;22.93;;;14.70;;
62475;SDS011;50739;45.670;11.936;2023-03-11T14:42:34;22.42;;;14.75;;
62475;SDS011;50739;45.670;11.936;2023-03-11T14:47:40;21.63;;;12.45;;
62475;SDS011;50739;45.670;11.936;2023-03-11T14:52:48;23.30;;;13.38;;
62475;SDS011;50739;45.670;11.936;2023-03-11T14:57:54;23.17;;;13.90;;
62475;SDS011;50739;45.670;11.936;2023-03-11T15:03:02;20.70;;;13.97;;
62475;SDS011;50739;45.670;11.936;2023-03-11T15:08:16;21.77;;;13.05;;
62475;SDS011;50739;45.670;11.936;2023-03-11T15:13:22;21.80;;;13.82;;
62475;SDS011;50739;45.670;11.936;2023-03-11T15:18:26;21.47;;;12.47;;
62475;SDS011;50739;45.670;11.936;2023-03-11T15:23:31;21.67;;;13.30;;
62475;SDS011;50739;45.670;11.936;2023-03-11T15:28:36;23.17;;;13.20;;
62475;SDS011;50739;45.670;11.936;2023-03-11T15:33:39;20.60;;;12.97;;
62475;SDS011;50739;45.670;11.936;2023-03-11T15:38:41;23.65;;;13.15;;
62475;SDS011;50739;45.670;11.936;2023-03-11T15:43:44;20.42;;;12.73;;
62475;SDS011;50739;45.670;11.936;2023-03-11T15:48:48;19.90;;;12.27;;
62475;SDS011;50739;45.670;11.936;2023-03-11T15:53:55;19.80;;;12.05;;
62475;SDS011;50739;45.670;11.936;2023-03-11T15:58:59;20.77;;;11.60;;
62475;SDS011;50739;45.670;11.936;2023-03-11T16:04:01;18.98;;;11.23;;
62475;SDS011;50739;45.670;11.936;2023-03-11T16:09:03;20.40;;;10.85;;
62475;SDS011;50739;45.670;11.936;2023-03-11T16:14:08;19.10;;;10.53;;
62475;SDS011;50739;45.670;11.936;2023-03-11T16:19:14;16.13;;;9.63;;
62475;SDS011;50739;45.670;11.936;2023-03-11T16:24:17;20.07;;;9.63;;
62475;SDS011;50739;45.670;11.936;2023-03-11T16:29:22;17.02;;;9.05;;
62475;SDS011;50739;45.670;11.936;2023-03-11T16:34:26;16.27;;;9.00;;
62475;SDS011;50739;45.670;11.936;2023-03-11T16:39:27;17.70;;;9.73;;
62475;SDS011;50739;45.670;11.936;2023-03-11T16:44:31;16.92;;;9.55;;
62475;SDS011;50739;45.670;11.936;2023-03-11T16:49:33;18.35;;;9.85;;
62475;SDS011;50739;45.670;11.936;2023-03-11T16:54:35;20.30;;;10.68;;
62475;SDS011;50739;45.670;11.936;2023-03-11T17:05:04;23.73;;;11.85;;
62475;SDS011;50739;45.670;11.936;2023-03-11T17:10:10;22.58;;;12.45;;
62475;SDS011;50739;45.670;11.936;2023-03-11T17:15:15;23.23;;;12.95;;
62475;SDS011;50739;45.670;11.936;2023-03-11T17:20:17;20.93;;;11.50;;
62475;SDS011;50739;45.670;11.936;2023-03-11T17:25:22;23.10;;;11.07;;
62475;SDS011;50739;45.670;11.936;2023-03-11T17:30:30;24.13;;;11.68;;
62475;SDS011;50739;45.670;11.936;2023-03-11T17:35:42;25.73;;;13.53;;
62475;SDS011;50739;45.670;11.936;2023-03-11T17:40:44;30.65;;;15.73;;
62475;SDS011;50739;45.670;11.936;2023-03-11T17:45:47;27.70;;;13.50;;
62475;SDS011;50739;45.670;11.936;2023-03-11T17:50:49;25.33;;;12.95;;
62475;SDS011;50739;45.670;11.936;2023-03-11T17:55:51;27.10;;;13.02;;
62475;SDS011;50739;45.670;11.936;2023-03-11T18:00:54;28.00;;;12.57;;
62475;SDS011;50739;45.670;11.936;2023-03-11T18:05:57;23.60;;;12.50;;
62475;SDS011;50739;45.670;11.936;2023-03-11T18:11:00;23.73;;;12.73;;
62475;SDS011;50739;45.670;11.936;2023-03-11T18:16:06;23.58;;;13.27;;
62475;SDS011;50739;45.670;11.936;2023-03-11T18:21:10;23.47;;;12.90;;
62475;SDS011;50739;45.670;11.936;2023-03-11T18:26:13;27.75;;;14.73;;
62475;SDS011;50739;45.670;11.936;2023-03-11T18:31:18;27.05;;;13.38;;
62475;SDS011;50739;45.670;11.936;2023-03-11T18:36:23;26.70;;;13.43;;
62475;SDS011;50739;45.670;11.936;2023-03-11T18:41:26;28.08;;;14.15;;
62475;SDS011;50739;45.670;11.936;2023-03-11T18:46:32;23.60;;;12.07;;
62475;SDS011;50739;45.670;11.936;2023-03-11T18:51:34;27.38;;;13.30;;
62475;SDS011;50739;45.670;11.936;2023-03-11T18:56:36;25.08;;;11.30;;
62475;SDS011;50739;45.670;11.936;2023-03-11T19:01:39;25.47;;;12.63;;
62475;SDS011;50739;45.670;11.936;2023-03-11T19:06:41;24.98;;;11.77;;
62475;SDS011;50739;45.670;11.936;2023-03-11T19:11:43;25.13;;;11.70;;
62475;SDS011;50739;45.670;11.936;2023-03-11T19:16:47;25.17;;;11.77;;
62475;SDS011;50739;45.670;11.936;2023-03-11T19:21:53;20.95;;;10.88;;
62475;SDS011;50739;45.670;11.936;2023-03-11T19:26:54;23.10;;;10.15;;
62475;SDS011;50739;45.670;11.936;2023-03-11T19:31:58;21.77;;;9.93;;
62475;SDS011;50739;45.670;11.936;2023-03-11T19:37:00;22.65;;;10.25;;
62475;SDS011;50739;45.670;11.936;2023-03-11T19:42:02;25.60;;;11.53;;
62475;SDS011;50739;45.670;11.936;2023-03-11T19:47:05;23.30;;;11.73;;
62475;SDS011;50739;45.670;11.936;2023-03-11T19:52:07;21.08;;;11.27;;
62475;SDS011;50739;45.670;11.936;2023-03-11T19:57:09;22.53;;;11.23;;
62475;SDS011;50739;45.670;11.936;2023-03-11T20:02:15;22.77;;;9.95;;
62475;SDS011;50739;45.670;11.936;2023-03-11T20:07:17;20.17;;;9.80;;
62475;SDS011;50739;45.670;11.936;2023-03-11T20:12:19;22.17;;;10.43;;
62475;SDS011;50739;45.670;11.936;2023-03-11T20:17:22;21.52;;;10.60;;
62475;SDS011;50739;45.670;11.936;2023-03-11T20:22:24;20.58;;;10.40;;
62475;SDS011;50739;45.670;11.936;2023-03-11T20:27:26;23.70;;;10.35;;
62475;SDS011;50739;45.670;11.936;2023-03-11T20:32:29;22.03;;;9.93;;
62475;SDS011;50739;45.670;11.936;2023-03-11T20:37:31;23.42;;;10.55;;
62475;SDS011;50739;45.670;11.936;2023-03-11T20:42:33;25.27;;;13.20;;
62475;SDS011;50739;45.670;11.936;2023-03-11T20:47:37;25.60;;;13.87;;
62475;SDS011;50739;45.670;11.936;2023-03-11T20:52:38;29.83;;;16.07;;
62475;SDS011;50739;45.670;11.936;2023-03-11T20:57:40;30.23;;;17.92;;
62475;SDS011;50739;45.670;11.936;2023-03-11T21:02:44;25.83;;;14.20;;
62475;SDS011;50739;45.670;11.936;2023-03-11T21:07:46;24.65;;;12.30;;
62475;SDS011;50739;45.670;11.936;2023-03-11T21:12:48;20.33;;;10.18;;
62475;SDS011;50739;45.670;11.936;2023-03-11T21:17:52;17.98;;;9.25;;
62475;SDS011;50739;45.670;11.936;2023-03-11T21:22:53;15.98;;;8.20;;
62475;SDS011;50739;45.670;11.936;2023-03-11T21:27:55;15.13;;;8.00;;
62475;SDS011;50739;45.670;11.936;2023-03-11T21:32:58;12.38;;;6.88;;
62475;SDS011;50739;45.670;11.936;2023-03-11T21:38:00;9.93;;;5.95;;
62475;SDS011;50739;45.670;11.936;2023-03-11T21:43:02;8.85;;;4.72;;
62475;SDS011;50739;45.670;11.936;2023-03-11T21:48:06;5.60;;;4.00;;
62475;SDS011;50739;45.670;11.936;2023-03-11T21:53:10;3.72;;;3.30;;
62475;SDS011;50739;45.670;11.936;2023-03-11T21:58:11;5.57;;;2.83;;
62475;SDS011;50739;45.670;11.936;2023-03-11T22:03:15;5.17;;;2.90;;
62475;SDS011;50739;45.670;11.936;2023-03-11T22:08:18;6.45;;;2.83;;
62475;SDS011;50739;45.670;11.936;2023-03-11T22:13:20;3.22;;;2.22;;
62475;SDS011;50739;45.670;11.936;2023-03-11T22:18:24;2.90;;;2.15;;
62475;SDS011;50739;45.670;11.936;2023-03-11T22:23:26;3.55;;;2.30;;
62475;SDS011;50739;45.670;11.936;2023-03-11T22:28:29;4.13;;;2.30;;
62475;SDS011;50739;45.670;11.936;2023-03-11T22:33:33;3.17;;;2.27;;
62475;SDS011;50739;45.670;11.936;2023-03-11T22:38:35;4.63;;;3.20;;
62475;SDS011;50739;45.670;11.936;2023-03-11T22:43:40;4.70;;;3.50;;
62475;SDS011;50739;45.670;11.936;2023-03-11T22:48:48;6.55;;;3.88;;
62475;SDS011;50739;45.670;11.936;2023-03-11T22:53:50;6.78;;;4.10;;
62475;SDS011;50739;45.670;11.936;2023-03-11T22:58:52;8.82;;;4.88;;
62475;SDS011;50739;45.670;11.936;2023-03-11T23:03:55;8.93;;;5.53;;
62475;SDS011;50739;45.670;11.936;2023-03-11T23:08:58;11.20;;;6.00;;
62475;SDS011;50739;45.670;11.936;2023-03-11T23:14:05;9.23;;;5.40;;
62475;SDS011;50739;45.670;11.936;2023-03-11T23:19:08;10.15;;;6.13;;
62475;SDS011;50739;45.670;11.936;2023-03-11T23:24:10;10.43;;;6.10;;
62475;SDS011;50739;45.670;11.936;2023-03-11T23:29:12;11.73;;;6.55;;
62475;SDS011;50739;45.670;11.936;2023-03-11T23:34:15;10.98;;;6.60;;
62475;SDS011;50739;45.670;11.936;2023-03-11T23:39:17;12.93;;;7.00;;
62475;SDS011;50739;45.670;11.936;2023-03-11T23:44:19;10.80;;;7.07;;
62475;SDS011;50739;45.670;11.936;2023-03-11T23:49:22;9.17;;;6.17;;
62475;SDS011;50739;45.670;11.936;2023-03-11T23:54:26;10.05;;;6.35;;
62475;SDS011;50739;45.670;11.936;2023-03-11T23:59:27;9.77;;;6.80;;
